createdAt,value
2023-01-30T00:04:58.621Z,0.828904
2023-01-30T00:09:56.335Z,0.839628
2023-01-30T00:14:59.511Z,0.893248
2023-01-30T00:19:57.686Z,1.000488
2023-01-30T00:24:56.591Z,0.989764
2023-01-30T00:30:23.763Z,0.989764
2023-01-30T00:35:21.786Z,0.97904
2023-01-30T00:40:26.015Z,1.021936
2023-01-30T00:45:34.189Z,0.989764
2023-01-30T00:50:44.889Z,0.989764
2023-01-30T00:55:42.925Z,1.011212
2023-01-30T01:00:51.781Z,1.064832
2023-01-30T01:05:53.795Z,1.064832
2023-01-30T01:10:54.572Z,1.097004
2023-01-30T01:16:21.387Z,1.1399
2023-01-30T01:21:19.313Z,1.236416
2023-01-30T01:26:14.994Z,1.30076
2023-01-30T01:31:24.594Z,1.365104
2023-01-30T01:36:52.693Z,1.397276
2023-01-30T01:41:26.852Z,1.440172
2023-01-30T01:46:26.278Z,1.547412
2023-01-30T01:51:31.575Z,1.558136
2023-01-30T01:56:31.687Z,1.665376
2023-01-30T02:02:26.021Z,1.740444
2023-01-30T02:07:30.277Z,1.858408
2023-01-30T02:12:31.495Z,2.008544
2023-01-30T02:17:28.164Z,2.791396
2023-01-30T02:22:42.643Z,3.252528
2023-01-30T02:28:03.687Z,3.198908
2023-01-30T02:33:24.838Z,2.448228
2023-01-30T02:38:26.447Z,2.437504
2023-01-30T02:43:29.111Z,2.330264
2023-01-30T02:48:27.071Z,2.448228
2023-01-30T02:53:26.783Z,2.405332
2023-01-30T02:58:21.956Z,2.437504
2023-01-30T03:03:29.684Z,2.437504
2023-01-30T03:08:30.931Z,2.544744
2023-01-30T03:13:59.635Z,2.673432
2023-01-30T03:18:57.020Z,2.737776
2023-01-30T03:23:55.667Z,2.90936
2023-01-30T03:28:53.446Z,2.7485
2023-01-30T03:33:57.140Z,2.90936
2023-01-30T03:39:30.480Z,2.7485
2023-01-30T03:44:31.099Z,2.80212
2023-01-30T03:49:29.270Z,2.705604
2023-01-30T03:54:32.424Z,2.834292
2023-01-30T03:59:34.633Z,2.791396
2023-01-30T04:04:32.889Z,2.866464
2023-01-30T04:09:37.037Z,2.791396
2023-01-30T04:14:39.415Z,2.780672
2023-01-30T04:19:42.611Z,2.769948
2023-01-30T04:24:40.994Z,2.705604
2023-01-30T04:29:41.145Z,2.877188
2023-01-30T04:34:42.219Z,2.930808
2023-01-30T04:39:51.827Z,2.984428
2023-01-30T04:44:47.285Z,3.102392
2023-01-30T04:50:17.592Z,3.134564
2023-01-30T04:56:13.063Z,3.102392
2023-01-30T05:01:19.620Z,3.241804
2023-01-30T05:06:15.011Z,3.306148
2023-01-30T05:11:19.228Z,3.220356
2023-01-30T05:16:17.195Z,3.327596
2023-01-30T05:21:21.953Z,3.252528
2023-01-30T05:27:23.969Z,3.306148
2023-01-30T05:32:32.157Z,3.349044
2023-01-30T05:37:43.362Z,3.359768
2023-01-30T05:43:05.677Z,3.413388
2023-01-30T05:48:30.307Z,3.381216
2023-01-30T05:53:35.221Z,3.44556
2023-01-30T05:58:36.184Z,3.467008
2023-01-30T06:03:35.646Z,3.488456
2023-01-30T06:09:02.893Z,3.5528
2023-01-30T06:14:05.406Z,3.531352
2023-01-30T06:19:01.706Z,3.574248
2023-01-30T06:23:57.573Z,3.595696
2023-01-30T06:30:03.573Z,3.60642
2023-01-30T06:35:02.785Z,3.756556
2023-01-30T06:40:01.598Z,3.8209
2023-01-30T06:45:00.851Z,3.756556
2023-01-30T06:49:59.419Z,3.735108
2023-01-30T06:54:58.643Z,3.810176
2023-01-30T06:59:57.348Z,3.810176
2023-01-30T07:05:00.644Z,3.960312
2023-01-30T07:10:07.805Z,4.046104
2023-01-30T07:14:58.162Z,4.067552
2023-01-30T07:20:01.793Z,4.024656
2023-01-30T07:24:59.952Z,4.03538
2023-01-30T07:30:03.467Z,4.067552
2023-01-30T07:35:05.860Z,4.03538
2023-01-30T07:39:59.658Z,4.19624
2023-01-30T07:45:04.000Z,4.164068
2023-01-30T07:50:02.168Z,4.206964
2023-01-30T07:55:32.249Z,4.131896
2023-01-30T08:00:30.983Z,4.185516
2023-01-30T08:05:58.177Z,4.206964
2023-01-30T08:10:54.351Z,4.239136
2023-01-30T08:16:00.338Z,4.239136
2023-01-30T08:21:01.671Z,4.206964
2023-01-30T08:26:01.868Z,4.282032
2023-01-30T08:30:57.392Z,4.282032
2023-01-30T08:36:01.568Z,4.282032
2023-01-30T08:41:02.666Z,4.3571
2023-01-30T08:46:27.350Z,4.3571
2023-01-30T08:51:30.840Z,4.399996
2023-01-30T08:56:29.985Z,4.292756
2023-01-30T09:01:34.355Z,4.399996
2023-01-30T09:06:32.623Z,4.367824
2023-01-30T09:11:35.865Z,4.271308
2023-01-30T09:16:32.995Z,4.335652
2023-01-30T09:21:36.319Z,4.282032
2023-01-30T09:26:34.474Z,4.324928
2023-01-30T09:31:37.602Z,4.271308
2023-01-30T09:36:36.350Z,4.453616
2023-01-30T09:41:48.977Z,4.378548
2023-01-30T09:46:45.412Z,4.367824
2023-01-30T09:51:49.762Z,4.453616
2023-01-30T09:56:46.731Z,4.453616
2023-01-30T10:01:51.028Z,4.507236
2023-01-30T10:06:48.970Z,4.614476
2023-01-30T10:11:52.162Z,4.560856
2023-01-30T10:17:13.096Z,4.475064
2023-01-30T10:22:38.919Z,4.485788
2023-01-30T10:27:39.603Z,4.389272
2023-01-30T10:32:36.997Z,4.367824
2023-01-30T10:37:40.060Z,4.282032
2023-01-30T10:42:38.990Z,4.346376
2023-01-30T10:47:47.261Z,4.475064
2023-01-30T10:52:44.633Z,4.485788
2023-01-30T10:57:46.196Z,4.51796
2023-01-30T11:02:44.235Z,4.507236
2023-01-30T11:08:43.182Z,4.550132
2023-01-30T11:14:03.158Z,4.507236
2023-01-30T11:19:21.281Z,4.603752
2023-01-30T11:24:01.899Z,4.668096
2023-01-30T11:29:29.118Z,4.710992
2023-01-30T11:34:25.422Z,4.539408
2023-01-30T11:39:28.480Z,4.646648
2023-01-30T11:44:25.474Z,4.539408
2023-01-30T11:49:45.832Z,4.51796
2023-01-30T11:54:28.443Z,4.539408
2023-01-30T11:59:37.891Z,4.421444
2023-01-30T12:04:39.111Z,4.399996
2023-01-30T12:09:41.149Z,4.485788
2023-01-30T12:14:39.158Z,4.421444
2023-01-30T12:20:08.884Z,4.164068
2023-01-30T12:25:05.067Z,4.046104
2023-01-30T12:30:14.741Z,3.92814
2023-01-30T12:35:16.866Z,3.992484
2023-01-30T12:40:21.784Z,3.906692
2023-01-30T12:45:46.584Z,4.013932
2023-01-30T12:50:42.258Z,4.206964
2023-01-30T12:55:51.343Z,4.003208
2023-01-30T13:00:47.865Z,4.099724
2023-01-30T13:05:54.025Z,4.153344
2023-01-30T13:10:53.183Z,4.14262
2023-01-30T13:15:53.219Z,4.399996
2023-01-30T13:20:49.692Z,4.367824
2023-01-30T13:25:54.151Z,4.485788
2023-01-30T13:30:52.945Z,4.51796
2023-01-30T13:35:50.435Z,4.582304
2023-01-30T13:40:54.668Z,4.507236
2023-01-30T13:45:55.582Z,4.603752
2023-01-30T13:50:52.774Z,4.635924
2023-01-30T13:55:59.658Z,4.83968
2023-01-30T14:00:57.713Z,4.968368
2023-01-30T14:05:59.190Z,4.989816
2023-01-30T14:11:00.629Z,5.225744
2023-01-30T14:15:53.292Z,-143.28
2023-01-30T14:20:51.715Z,-143.28
2023-01-30T14:25:44.863Z,-143.28
2023-01-30T14:30:38.191Z,-143.28
2023-01-30T14:35:36.154Z,-143.28
2023-01-30T14:40:27.401Z,-143.28
2023-01-30T14:45:54.775Z,5.05416
2023-01-30T14:50:44.031Z,-143.28
2023-01-30T14:55:43.479Z,-143.28
2023-01-30T15:00:41.655Z,4.94692
2023-01-30T15:05:40.484Z,5.011264
2023-01-30T15:10:38.268Z,-143.28
2023-01-30T15:15:29.815Z,-143.28
2023-01-30T15:20:29.152Z,-143.28
2023-01-30T15:25:21.447Z,-143.28
2023-01-30T15:30:41.343Z,-143.28
2023-01-30T15:35:56.504Z,-143.28
2023-01-30T15:40:55.782Z,4.721716
2023-01-30T15:45:55.239Z,4.700268
2023-01-30T15:50:54.276Z,4.603752
2023-01-30T15:55:57.772Z,4.485788
2023-01-30T16:01:18.931Z,4.41072
2023-01-30T16:06:14.253Z,4.399996
2023-01-30T16:11:12.523Z,4.3571
2023-01-30T16:16:16.722Z,4.314204
2023-01-30T16:21:39.635Z,4.292756
2023-01-30T16:26:37.219Z,4.282032
2023-01-30T16:31:36.396Z,4.271308
2023-01-30T16:36:48.313Z,4.24986
2023-01-30T16:41:51.000Z,4.282032
2023-01-30T16:46:52.415Z,4.282032
2023-01-30T16:51:51.557Z,4.271308
2023-01-30T16:56:49.233Z,4.271308
2023-01-30T17:01:59.899Z,4.282032
2023-01-30T17:06:59.603Z,4.314204
2023-01-30T17:11:57.024Z,4.335652
2023-01-30T17:16:56.987Z,4.30348
2023-01-30T17:22:21.953Z,4.30348
2023-01-30T17:27:20.050Z,4.314204
2023-01-30T17:32:23.281Z,4.314204
2023-01-30T17:38:04.902Z,4.24986
2023-01-30T17:45:51.389Z,4.228412
2023-01-30T17:50:47.021Z,4.346376
2023-01-30T17:55:53.753Z,4.271308
2023-01-30T18:00:55.909Z,4.292756
2023-01-30T18:06:01.737Z,4.335652
2023-01-30T18:11:26.161Z,4.324928
2023-01-30T18:16:28.474Z,4.282032
2023-01-30T18:21:32.098Z,4.292756
2023-01-30T18:26:33.591Z,4.271308
2023-01-30T18:31:29.920Z,4.24986
2023-01-30T18:36:29.135Z,4.228412
2023-01-30T18:41:29.265Z,4.282032
2023-01-30T18:46:36.861Z,4.271308
2023-01-30T18:51:34.476Z,4.24986
2023-01-30T18:56:39.215Z,4.30348
2023-01-30T19:01:40.580Z,4.314204
2023-01-30T19:06:48.994Z,4.314204
2023-01-30T19:12:11.333Z,4.292756
2023-01-30T19:17:23.306Z,4.282032
2023-01-30T19:22:24.937Z,4.346376
2023-01-30T19:27:29.343Z,4.282032
2023-01-30T19:32:26.331Z,4.206964
2023-01-30T19:37:34.796Z,4.19624
2023-01-30T19:42:51.063Z,4.153344
2023-01-30T19:47:46.911Z,4.14262
2023-01-30T19:52:53.509Z,4.121172
2023-01-30T19:57:53.721Z,4.067552
2023-01-30T20:02:53.111Z,4.078276
2023-01-30T20:07:52.392Z,4.046104
2023-01-30T20:12:52.720Z,4.067552
2023-01-30T20:17:51.409Z,4.046104
2023-01-30T20:23:00.682Z,4.013932
2023-01-30T20:31:07.843Z,3.938864
2023-01-30T20:36:07.006Z,3.98176
2023-01-30T20:41:07.572Z,3.87452
2023-01-30T20:46:17.258Z,3.799452
2023-01-30T20:51:20.478Z,3.692212
2023-01-30T20:56:23.250Z,3.617144
2023-01-30T21:01:24.583Z,3.702936
2023-01-30T21:06:41.282Z,3.49918
2023-01-30T21:11:23.278Z,3.531352
2023-01-30T21:16:32.165Z,3.584972
2023-01-30T21:21:33.543Z,3.467008
2023-01-30T21:26:33.688Z,3.520628
2023-01-30T21:31:32.516Z,3.477732
2023-01-30T21:36:32.602Z,3.424112
2023-01-30T21:41:52.351Z,3.39194
2023-01-30T21:46:55.361Z,3.617144
2023-01-30T21:51:52.119Z,3.477732
2023-01-30T21:56:55.747Z,3.49918
2023-01-30T22:01:56.332Z,3.531352
2023-01-30T22:06:53.112Z,3.509904
2023-01-30T22:11:54.097Z,3.531352
2023-01-30T22:16:57.146Z,3.402664
2023-01-30T22:22:00.153Z,3.467008
2023-01-30T22:26:57.427Z,3.627868
2023-01-30T22:32:04.202Z,3.509904
2023-01-30T22:37:27.823Z,3.402664
2023-01-30T22:42:29.657Z,3.467008
2023-01-30T22:47:54.321Z,3.381216
2023-01-30T22:53:49.414Z,3.381216
2023-01-30T22:58:47.243Z,3.402664
2023-01-30T23:04:15.487Z,3.574248
2023-01-30T23:09:39.150Z,3.638592
2023-01-30T23:14:32.896Z,3.5528
2023-01-30T23:19:41.087Z,3.198908
2023-01-30T23:24:37.794Z,3.17746
2023-01-30T23:29:47.336Z,3.263252
2023-01-30T23:34:59.387Z,3.39194
2023-01-30T23:40:09.990Z,3.413388
2023-01-30T23:45:07.650Z,3.424112
2023-01-30T23:50:35.261Z,3.370492
2023-01-30T23:55:37.605Z,3.349044
